createdAt,value
2018-09-13T00:17:43.072Z,18.13
2018-09-13T00:38:30.626Z,17.87
2018-09-13T00:59:12.319Z,17.56
2018-09-13T01:19:56.230Z,17.34
2018-09-13T01:40:37.645Z,17.26
2018-09-13T02:01:18.762Z,16.98
2018-09-13T02:22:02.936Z,16.94
2018-09-13T02:42:41.280Z,16.84
2018-09-13T03:03:19.624Z,16.79
2018-09-13T03:23:58.892Z,16.91
2018-09-13T03:44:39.081Z,17.04
2018-09-13T04:05:21.735Z,17.07
2018-09-13T04:26:02.835Z,17.13
2018-09-13T04:46:46.097Z,17.03
2018-09-13T05:07:31.513Z,16.96
2018-09-13T05:28:15.026Z,16.99
2018-09-13T05:48:58.024Z,16.92
2018-09-13T06:09:41.280Z,16.94
2018-09-13T06:30:22.963Z,17.05
2018-09-13T06:51:02.890Z,17.17
2018-09-13T07:11:42.167Z,17.47
2018-09-13T07:32:21.435Z,17.73
2018-09-13T07:53:00.686Z,18.10
2018-09-13T08:13:39.030Z,18.17
2018-09-13T08:34:17.655Z,18.34
2018-09-13T08:55:01.593Z,18.53
2018-09-13T09:15:40.825Z,18.75
2018-09-13T09:36:23.162Z,19.02
2018-09-13T09:57:04.271Z,19.18
2018-09-13T10:17:49.683Z,19.63
2018-09-13T10:38:36.346Z,19.76
2018-09-13T11:17:24.016Z,19.90
2018-09-13T11:38:06.365Z,19.97
2018-09-13T11:58:44.051Z,20.17
2018-09-13T12:19:27.960Z,20.28
2018-09-13T12:40:05.384Z,20.55
2018-09-13T13:00:45.570Z,20.75
2018-09-13T13:21:25.756Z,20.89
2018-09-13T13:42:08.097Z,20.50
2018-09-13T14:02:50.433Z,20.28
2018-09-13T14:23:32.773Z,19.98
2018-09-13T14:44:24.024Z,20.00
2018-09-13T15:05:02.639Z,19.87
2018-09-13T15:25:44.929Z,19.62
2018-09-13T15:46:24.890Z,19.60
2018-09-13T16:07:07.843Z,19.44
2018-09-13T16:27:51.409Z,19.29
2018-09-13T16:48:33.442Z,18.80
2018-09-13T17:09:18.233Z,18.75
2018-09-13T17:29:57.500Z,18.60
2018-09-13T17:50:36.774Z,18.54
2018-09-13T18:11:16.048Z,18.40
2018-09-13T18:32:01.447Z,18.37
2018-09-13T18:52:41.647Z,18.26
2018-09-13T19:13:19.059Z,18.11
2018-09-13T19:34:02.465Z,17.93
2018-09-13T19:54:45.578Z,17.82
2018-09-13T20:15:26.688Z,17.69
2018-09-13T20:36:08.389Z,17.72
2018-09-13T20:56:51.367Z,17.64
2018-09-13T21:17:31.554Z,17.53
2018-09-13T21:38:14.245Z,17.45
2018-09-13T21:58:57.162Z,17.40
2018-09-13T22:19:39.799Z,17.28
2018-09-13T22:40:25.822Z,17.20
2018-09-13T23:01:06.011Z,17.04
2018-09-13T23:21:48.654Z,16.89
2018-09-13T23:42:32.834Z,16.62
